Time;durP1;ratioP1;P1;durP2;ratioP2;P2;SDS_P1;SDS_P2;PMS_P1;PMS_P2;Temp;Humidity;BMP_temperature;BMP_pressure;BME280_temperature;BME280_humidity;BME280_pressure;Samples;Min_cycle;Max_cycle;Signal;HPM_P1;HPM_P2
2023/07/23 00:01:33;;;;;;;11.35;6.30;;;;;;;;;;4966963;28;102742;-94
2023/07/23 00:04:00;;;;;;;12.85;6.88;;;;;;;;;;4958826;28;103477;-94
2023/07/23 00:06:27;;;;;;;17.98;6.88;;;;;;;;;;4969243;28;100144;-96
2023/07/23 00:08:53;;;;;;;13.75;7.45;;;;;;;;;;4968171;28;103058;-95
2023/07/23 00:11:20;;;;;;;19.00;7.85;;;;;;;;;;4970409;28;101868;-93
2023/07/23 00:13:46;;;;;;;15.65;7.45;;;;;;;;;;4974584;28;98598;-93
2023/07/23 00:16:13;;;;;;;12.73;7.47;;;;;;;;;;4973089;28;101620;-93
2023/07/23 00:18:39;;;;;;;12.43;6.93;;;;;;;;;;4972705;28;97771;-94
2023/07/23 00:21:06;;;;;;;13.70;6.93;;;;;;;;;;4971822;28;100802;-94
2023/07/23 00:23:32;;;;;;;15.77;8.27;;;;;;;;;;4971338;28;103668;-94
2023/07/23 00:25:59;;;;;;;10.38;6.88;;;;;;;;;;4972564;28;99623;-94
2023/07/23 00:28:25;;;;;;;13.82;7.30;;;;;;;;;;4970064;28;103276;-95
2023/07/23 00:30:52;;;;;;;15.90;7.70;;;;;;;;;;4971294;28;103557;-94
2023/07/23 00:33:20;;;;;;;12.57;7.03;;;;;;;;;;4971388;28;98568;-93
2023/07/23 00:35:49;;;;;;;20.70;8.18;;;;;;;;;;4974604;28;102823;-94
2023/07/23 00:38:16;;;;;;;17.70;7.78;;;;;;;;;;4970005;28;100305;-93
2023/07/23 00:40:43;;;;;;;15.20;8.70;;;;;;;;;;4970771;28;102955;-93
2023/07/23 00:43:10;;;;;;;19.27;8.93;;;;;;;;;;4968885;28;102096;-92
2023/07/23 00:45:37;;;;;;;12.32;7.35;;;;;;;;;;4972578;28;98611;-92
2023/07/23 00:48:03;;;;;;;14.60;8.27;;;;;;;;;;4972589;28;102811;-92
2023/07/23 00:50:30;;;;;;;15.70;8.23;;;;;;;;;;4969277;28;103664;-95
2023/07/23 00:52:57;;;;;;;11.90;7.40;;;;;;;;;;4971317;28;98590;-92
2023/07/23 00:55:23;;;;;;;12.77;8.52;;;;;;;;;;4974074;28;103233;-93
2023/07/23 00:57:50;;;;;;;17.25;7.97;;;;;;;;;;4973727;28;101765;-93
2023/07/23 01:00:16;;;;;;;19.10;8.88;;;;;;;;;;4971123;28;102635;-92
2023/07/23 01:02:43;;;;;;;15.25;7.75;;;;;;;;;;4969202;28;101867;-92
2023/07/23 01:05:11;;;;;;;20.05;8.25;;;;;;;;;;4972259;28;98623;-93
2023/07/23 01:07:39;;;;;;;13.60;8.05;;;;;;;;;;4968978;28;99141;-92
2023/07/23 01:10:09;;;;;;;13.73;8.05;;;;;;;;;;4968914;28;102487;-92
2023/07/23 01:12:36;;;;;;;22.00;8.40;;;;;;;;;;4959210;28;98621;-93
2023/07/23 01:15:04;;;;;;;16.60;8.55;;;;;;;;;;4971877;28;102620;-91
2023/07/23 01:17:31;;;;;;;13.93;8.93;;;;;;;;;;4971623;28;103719;-93
2023/07/23 01:19:59;;;;;;;13.90;8.20;;;;;;;;;;4973837;28;98607;-94
2023/07/23 01:22:26;;;;;;;16.42;8.80;;;;;;;;;;4970246;28;103361;-91
2023/07/23 01:24:52;;;;;;;15.85;7.90;;;;;;;;;;4972164;28;98526;-91
2023/07/23 01:27:19;;;;;;;14.20;8.38;;;;;;;;;;4970194;28;100239;-92
2023/07/23 01:29:46;;;;;;;13.70;7.43;;;;;;;;;;4968551;28;103707;-93
2023/07/23 01:32:12;;;;;;;15.40;8.13;;;;;;;;;;4964392;28;97900;-92
2023/07/23 01:34:39;;;;;;;15.27;8.30;;;;;;;;;;4970468;28;101472;-92
2023/07/23 01:37:06;;;;;;;13.60;7.85;;;;;;;;;;4969277;28;103657;-92
2023/07/23 01:39:32;;;;;;;17.17;8.38;;;;;;;;;;4970330;28;99976;-91
2023/07/23 01:41:59;;;;;;;14.07;8.30;;;;;;;;;;4973045;28;101823;-91
2023/07/23 01:44:26;;;;;;;18.55;8.57;;;;;;;;;;4968773;28;99123;-94
2023/07/23 01:46:52;;;;;;;15.40;8.85;;;;;;;;;;4969980;28;102668;-92
2023/07/23 01:49:19;;;;;;;12.98;8.18;;;;;;;;;;4969927;28;102973;-91
2023/07/23 01:51:47;;;;;;;14.70;8.02;;;;;;;;;;4969795;28;98765;-91
2023/07/23 01:54:14;;;;;;;9.68;7.60;;;;;;;;;;4972573;28;102042;-91
2023/07/23 01:56:41;;;;;;;15.07;8.50;;;;;;;;;;4971226;28;100548;-93
2023/07/23 01:59:08;;;;;;;22.25;8.23;;;;;;;;;;4970682;28;98580;-92
2023/07/23 02:01:35;;;;;;;13.52;8.35;;;;;;;;;;4973027;28;103151;-92
2023/07/23 02:04:02;;;;;;;13.25;8.35;;;;;;;;;;4969686;28;99406;-93
2023/07/23 02:06:29;;;;;;;16.83;8.27;;;;;;;;;;4969286;28;100483;-92
2023/07/23 02:08:55;;;;;;;14.45;8.88;;;;;;;;;;4969730;28;102728;-92
2023/07/23 02:11:22;;;;;;;22.00;8.45;;;;;;;;;;4969910;28;100080;-92
2023/07/23 02:13:48;;;;;;;14.40;8.45;;;;;;;;;;4969778;28;99932;-91
2023/07/23 02:16:15;;;;;;;15.20;8.85;;;;;;;;;;4969160;28;100644;-92
2023/07/23 02:18:42;;;;;;;14.38;8.27;;;;;;;;;;4990930;28;98536;-92
2023/07/23 02:21:08;;;;;;;14.95;8.45;;;;;;;;;;4971526;28;102949;-91
2023/07/23 02:23:35;;;;;;;17.05;8.57;;;;;;;;;;4972214;28;103948;-92
2023/07/23 02:26:01;;;;;;;13.60;7.70;;;;;;;;;;4966695;28;101264;-93
2023/07/23 02:28:28;;;;;;;13.55;8.02;;;;;;;;;;4969659;28;103903;-91
2023/07/23 02:30:58;;;;;;;14.93;9.00;;;;;;;;;;4970108;28;98580;-92
2023/07/23 02:33:25;;;;;;;15.90;9.02;;;;;;;;;;4949416;28;102821;-91
2023/07/23 02:35:52;;;;;;;11.20;7.53;;;;;;;;;;4965386;28;103369;-92
2023/07/23 02:38:18;;;;;;;15.05;8.25;;;;;;;;;;4969127;28;98564;-91
2023/07/23 02:40:45;;;;;;;10.00;7.35;;;;;;;;;;4970101;28;101893;-91
2023/07/23 02:43:12;;;;;;;15.60;8.02;;;;;;;;;;4969856;28;103239;-91
2023/07/23 02:45:39;;;;;;;14.38;8.05;;;;;;;;;;4973141;28;97928;-92
2023/07/23 02:48:06;;;;;;;12.40;7.90;;;;;;;;;;4970283;28;102699;-92
2023/07/23 02:50:33;;;;;;;15.55;7.95;;;;;;;;;;4970727;28;98876;-92
2023/07/23 02:52:59;;;;;;;13.43;8.43;;;;;;;;;;4968750;28;103165;-92
2023/07/23 02:55:29;;;;;;;11.80;7.68;;;;;;;;;;4971189;28;100934;-92
2023/07/23 02:57:56;;;;;;;16.57;8.47;;;;;;;;;;4969153;28;98722;-92
2023/07/23 03:00:22;;;;;;;13.00;8.35;;;;;;;;;;4969196;28;98675;-93
2023/07/23 03:02:49;;;;;;;20.88;8.38;;;;;;;;;;4971700;28;101729;-92
2023/07/23 03:05:16;;;;;;;15.10;8.60;;;;;;;;;;4968279;28;99839;-94
2023/07/23 03:07:42;;;;;;;11.73;8.13;;;;;;;;;;4970431;28;103289;-93
2023/07/23 03:10:09;;;;;;;12.43;7.80;;;;;;;;;;4970101;28;98076;-94
2023/07/23 03:12:35;;;;;;;14.85;8.65;;;;;;;;;;4968241;28;99532;-92
2023/07/23 03:15:05;;;;;;;13.98;8.60;;;;;;;;;;4966103;28;102974;-92
2023/07/23 03:17:35;;;;;;;13.80;8.40;;;;;;;;;;4972185;28;99601;-93
2023/07/23 03:20:03;;;;;;;13.73;8.47;;;;;;;;;;4951491;28;102893;-92
2023/07/23 03:22:30;;;;;;;16.10;8.82;;;;;;;;;;4969811;28;103567;-91
2023/07/23 03:24:56;;;;;;;19.05;8.52;;;;;;;;;;4967084;28;99291;-91
2023/07/23 03:27:23;;;;;;;16.55;8.85;;;;;;;;;;4967843;28;101435;-94
2023/07/23 03:29:49;;;;;;;13.65;8.95;;;;;;;;;;4971999;28;101561;-92
2023/07/23 03:32:16;;;;;;;14.55;8.02;;;;;;;;;;4969764;28;103034;-92
2023/07/23 03:34:42;;;;;;;17.98;8.25;;;;;;;;;;4968806;28;101951;-93
2023/07/23 03:37:09;;;;;;;11.32;7.97;;;;;;;;;;4958257;28;100595;-92
2023/07/23 03:39:35;;;;;;;17.73;7.72;;;;;;;;;;4968231;28;100158;-92
2023/07/23 03:42:02;;;;;;;12.93;7.72;;;;;;;;;;4967610;28;102593;-91
2023/07/23 03:44:29;;;;;;;18.23;8.27;;;;;;;;;;4962396;28;98730;-93
2023/07/23 03:47:03;;;;;;;20.30;8.25;;;;;;;;;;4972010;28;99831;-92
2023/07/23 03:49:30;;;;;;;9.20;7.00;;;;;;;;;;4984328;28;102552;-92
2023/07/23 03:51:56;;;;;;;20.75;8.00;;;;;;;;;;4975182;28;98483;-95
2023/07/23 03:54:23;;;;;;;15.68;7.30;;;;;;;;;;4969526;28;101953;-94
2023/07/23 03:56:49;;;;;;;14.93;7.32;;;;;;;;;;4971899;28;98600;-92
2023/07/23 03:59:16;;;;;;;13.20;6.93;;;;;;;;;;4971287;28;98472;-93
2023/07/23 04:01:42;;;;;;;9.38;7.15;;;;;;;;;;4971276;28;101838;-92
2023/07/23 04:04:09;;;;;;;10.15;6.95;;;;;;;;;;4971138;28;98598;-94
2023/07/23 04:06:39;;;;;;;15.50;7.28;;;;;;;;;;4970434;28;103941;-91
2023/07/23 04:09:05;;;;;;;10.15;7.28;;;;;;;;;;4970734;28;102843;-93
2023/07/23 04:11:32;;;;;;;12.10;7.22;;;;;;;;;;4974722;28;98713;-93
2023/07/23 04:13:59;;;;;;;14.48;7.10;;;;;;;;;;4971026;28;102718;-93
2023/07/23 04:16:25;;;;;;;15.82;7.43;;;;;;;;;;4971719;28;98582;-91
2023/07/23 04:18:53;;;;;;;9.63;6.38;;;;;;;;;;4972675;28;102742;-92
2023/07/23 04:21:21;;;;;;;10.90;7.18;;;;;;;;;;4963650;28;102723;-92
2023/07/23 04:23:48;;;;;;;10.77;7.05;;;;;;;;;;4954099;28;97780;-92
2023/07/23 04:26:15;;;;;;;13.27;7.30;;;;;;;;;;4968668;28;100895;-91
2023/07/23 04:28:42;;;;;;;10.02;6.68;;;;;;;;;;4969697;28;103039;-92
2023/07/23 04:31:09;;;;;;;13.32;6.95;;;;;;;;;;4971457;28;100392;-92
2023/07/23 04:33:36;;;;;;;11.73;6.55;;;;;;;;;;4974106;28;103412;-92
2023/07/23 04:36:03;;;;;;;12.40;6.57;;;;;;;;;;4971507;28;98567;-95
2023/07/23 04:38:29;;;;;;;12.23;6.80;;;;;;;;;;4971608;28;99053;-92
2023/07/23 04:40:56;;;;;;;13.23;6.78;;;;;;;;;;4971177;28;102491;-94
2023/07/23 04:43:23;;;;;;;11.30;6.72;;;;;;;;;;4970209;28;98659;-94
2023/07/23 04:45:49;;;;;;;10.02;6.00;;;;;;;;;;4971338;28;101086;-92
2023/07/23 04:48:16;;;;;;;15.00;6.38;;;;;;;;;;4972866;28;102351;-92
2023/07/23 04:50:43;;;;;;;13.20;6.55;;;;;;;;;;4969423;28;98576;-92
2023/07/23 04:53:18;;;;;;;11.35;6.15;;;;;;;;;;4972388;28;102528;-94
2023/07/23 04:55:44;;;;;;;11.57;6.70;;;;;;;;;;4972474;28;103307;-92
2023/07/23 04:58:11;;;;;;;9.35;5.30;;;;;;;;;;4970639;28;100721;-92
2023/07/23 05:00:37;;;;;;;7.90;5.50;;;;;;;;;;4984552;28;103226;-92
2023/07/23 05:03:04;;;;;;;11.07;5.60;;;;;;;;;;4969566;28;98687;-91
2023/07/23 05:05:31;;;;;;;9.75;5.40;;;;;;;;;;4971195;28;99373;-92
2023/07/23 05:07:58;;;;;;;17.50;5.50;;;;;;;;;;4978726;28;103321;-94
2023/07/23 05:10:27;;;;;;;12.85;5.97;;;;;;;;;;4982605;28;98575;-93
2023/07/23 05:12:53;;;;;;;13.60;5.65;;;;;;;;;;4972564;28;99806;-91
2023/07/23 05:15:20;;;;;;;9.93;6.13;;;;;;;;;;4969021;28;100303;-93
2023/07/23 05:17:46;;;;;;;21.88;5.45;;;;;;;;;;4975343;28;98572;-94
2023/07/23 05:20:13;;;;;;;11.13;5.35;;;;;;;;;;4968023;28;103251;-94
2023/07/23 05:22:40;;;;;;;10.50;6.00;;;;;;;;;;4970621;28;98529;-93
2023/07/23 05:25:07;;;;;;;8.48;5.57;;;;;;;;;;4972072;28;103341;-93
2023/07/23 05:27:34;;;;;;;10.80;5.47;;;;;;;;;;4973800;28;104079;-93
2023/07/23 05:30:01;;;;;;;11.52;5.85;;;;;;;;;;4972770;28;98642;-94
2023/07/23 05:32:27;;;;;;;14.15;6.22;;;;;;;;;;4970860;28;102132;-93
2023/07/23 05:34:54;;;;;;;12.88;5.50;;;;;;;;;;4972686;28;103690;-95
2023/07/23 05:37:20;;;;;;;12.75;6.38;;;;;;;;;;4973544;28;98196;-94
2023/07/23 05:39:48;;;;;;;12.70;5.25;;;;;;;;;;4976510;28;101892;-94
2023/07/23 05:42:14;;;;;;;11.10;5.70;;;;;;;;;;4972899;28;98583;-94
2023/07/23 05:44:41;;;;;;;19.33;6.00;;;;;;;;;;4972580;28;101626;-95
2023/07/23 05:47:07;;;;;;;10.38;5.30;;;;;;;;;;4970484;28;103186;-93
2023/07/23 05:49:34;;;;;;;14.10;6.57;;;;;;;;;;4969969;28;99487;-95
2023/07/23 05:52:01;;;;;;;18.00;6.03;;;;;;;;;;4973458;28;101513;-94
2023/07/23 05:54:27;;;;;;;11.75;5.40;;;;;;;;;;4968350;28;102215;-93
2023/07/23 05:56:54;;;;;;;13.65;5.88;;;;;;;;;;4971816;28;98671;-94
2023/07/23 05:59:20;;;;;;;11.60;5.85;;;;;;;;;;4970147;28;100421;-93
2023/07/23 06:01:47;;;;;;;12.57;6.03;;;;;;;;;;4974258;28;102656;-94
2023/07/23 06:04:14;;;;;;;11.93;6.20;;;;;;;;;;4970669;28;102718;-95
2023/07/23 06:06:40;;;;;;;11.82;5.90;;;;;;;;;;4970467;28;103180;-93
2023/07/23 06:09:07;;;;;;;15.02;6.22;;;;;;;;;;4973183;28;99327;-94
2023/07/23 06:11:33;;;;;;;11.63;5.93;;;;;;;;;;4971787;28;103171;-93
2023/07/23 06:14:02;;;;;;;25.23;6.15;;;;;;;;;;4970490;28;103091;-94
2023/07/23 06:16:30;;;;;;;13.13;5.78;;;;;;;;;;4969755;28;98829;-94
2023/07/23 06:18:57;;;;;;;14.15;5.68;;;;;;;;;;4971307;28;102956;-94
2023/07/23 06:21:24;;;;;;;9.05;5.90;;;;;;;;;;4972250;28;103449;-95
2023/07/23 06:23:54;;;;;;;17.13;6.10;;;;;;;;;;4963531;28;102751;-94
2023/07/23 06:26:23;;;;;;;9.13;5.18;;;;;;;;;;4966393;28;101416;-96
2023/07/23 06:28:50;;;;;;;13.60;5.87;;;;;;;;;;4964387;28;98533;-96
2023/07/23 06:31:17;;;;;;;12.93;6.55;;;;;;;;;;4971796;28;102405;-96
2023/07/23 06:33:44;;;;;;;10.45;5.53;;;;;;;;;;4970350;28;104374;-93
2023/07/23 06:36:10;;;;;;;12.02;5.40;;;;;;;;;;4970071;28;99006;-95
2023/07/23 06:38:37;;;;;;;10.32;5.03;;;;;;;;;;4971569;28;103662;-93
2023/07/23 06:41:04;;;;;;;11.48;5.57;;;;;;;;;;4970926;28;102741;-94
2023/07/23 06:43:31;;;;;;;17.38;5.70;;;;;;;;;;4975517;28;98595;-94
2023/07/23 06:46:00;;;;;;;13.27;6.10;;;;;;;;;;4968996;28;103276;-93
2023/07/23 06:48:28;;;;;;;10.05;5.55;;;;;;;;;;4970121;28;98528;-94
2023/07/23 06:50:58;;;;;;;16.85;6.18;;;;;;;;;;4962113;28;101686;-94
2023/07/23 06:53:24;;;;;;;20.70;6.13;;;;;;;;;;4968185;28;102636;-94
2023/07/23 06:55:57;;;;;;;14.07;5.78;;;;;;;;;;4973518;28;98716;-94
2023/07/23 06:58:23;;;;;;;18.00;5.88;;;;;;;;;;4972374;28;103121;-94
2023/07/23 07:00:50;;;;;;;8.23;5.18;;;;;;;;;;4976966;28;102972;-93
2023/07/23 07:03:16;;;;;;;9.05;5.93;;;;;;;;;;4969975;28;98608;-94
2023/07/23 07:05:43;;;;;;;11.65;6.07;;;;;;;;;;4970902;28;103182;-94
2023/07/23 07:08:09;;;;;;;10.63;5.70;;;;;;;;;;4966613;28;98745;-94
2023/07/23 07:10:36;;;;;;;14.73;6.07;;;;;;;;;;4962959;28;102290;-94
2023/07/23 07:13:03;;;;;;;15.80;6.40;;;;;;;;;;4969313;28;103460;-93
2023/07/23 07:15:29;;;;;;;9.60;6.05;;;;;;;;;;4970721;28;97917;-93
2023/07/23 07:17:56;;;;;;;12.63;6.07;;;;;;;;;;4971101;28;101862;-93
2023/07/23 07:20:22;;;;;;;20.00;6.20;;;;;;;;;;4977062;28;103290;-95
2023/07/23 07:22:49;;;;;;;10.90;6.40;;;;;;;;;;4969017;28;99504;-94
2023/07/23 07:25:15;;;;;;;10.98;5.95;;;;;;;;;;4968513;28;103743;-94
2023/07/23 07:27:42;;;;;;;14.27;6.00;;;;;;;;;;4977227;28;103702;-93
2023/07/23 07:30:09;;;;;;;9.75;5.55;;;;;;;;;;4968563;28;102877;-94
2023/07/23 07:32:35;;;;;;;9.27;5.93;;;;;;;;;;4966741;28;103319;-94
2023/07/23 07:35:05;;;;;;;8.98;6.05;;;;;;;;;;4969479;28;98634;-94
2023/07/23 07:37:35;;;;;;;15.50;6.32;;;;;;;;;;4969505;28;102244;-94
2023/07/23 07:40:04;;;;;;;13.00;5.97;;;;;;;;;;4969223;28;101325;-94
2023/07/23 07:42:31;;;;;;;10.32;6.32;;;;;;;;;;4968393;28;98726;-93
2023/07/23 07:44:58;;;;;;;12.15;5.97;;;;;;;;;;4968558;28;103318;-95
2023/07/23 07:47:24;;;;;;;14.32;5.53;;;;;;;;;;4967748;28;103671;-94
2023/07/23 07:49:52;;;;;;;9.30;5.93;;;;;;;;;;4968818;28;98648;-94
2023/07/23 07:52:18;;;;;;;11.50;6.43;;;;;;;;;;4968978;28;103095;-94
2023/07/23 07:54:45;;;;;;;13.90;5.97;;;;;;;;;;4968303;28;99496;-93
2023/07/23 07:57:12;;;;;;;9.50;5.68;;;;;;;;;;4966590;28;102475;-94
2023/07/23 07:59:39;;;;;;;12.35;6.00;;;;;;;;;;4969350;28;101771;-93
2023/07/23 08:02:06;;;;;;;7.88;5.30;;;;;;;;;;4967685;28;98647;-95
2023/07/23 08:04:32;;;;;;;11.82;5.88;;;;;;;;;;4969689;28;99546;-94
2023/07/23 08:06:59;;;;;;;10.85;6.03;;;;;;;;;;4970669;28;103075;-93
2023/07/23 08:09:26;;;;;;;12.98;5.28;;;;;;;;;;4968362;28;99360;-93
2023/07/23 08:11:53;;;;;;;9.95;5.53;;;;;;;;;;4969828;28;102568;-94
2023/07/23 08:14:20;;;;;;;13.15;5.75;;;;;;;;;;4969442;28;98576;-93
2023/07/23 08:16:49;;;;;;;10.38;5.30;;;;;;;;;;4969219;28;100949;-94
2023/07/23 08:19:16;;;;;;;14.33;5.00;;;;;;;;;;4969241;28;103256;-93
2023/07/23 08:21:43;;;;;;;10.80;5.95;;;;;;;;;;4969752;28;98975;-94
2023/07/23 08:24:10;;;;;;;12.05;4.95;;;;;;;;;;4969190;28;99146;-96
2023/07/23 08:26:39;;;;;;;9.13;5.00;;;;;;;;;;4968733;28;104148;-94
2023/07/23 08:29:08;;;;;;;13.33;5.90;;;;;;;;;;4969263;28;97899;-93
2023/07/23 08:31:34;;;;;;;10.48;5.03;;;;;;;;;;4974307;28;100805;-93
2023/07/23 08:34:02;;;;;;;7.18;4.85;;;;;;;;;;4972469;28;98760;-93
2023/07/23 08:36:30;;;;;;;8.20;5.03;;;;;;;;;;4974178;28;103535;-92
2023/07/23 08:38:57;;;;;;;7.28;5.15;;;;;;;;;;4971556;28;101227;-94
2023/07/23 08:41:32;;;;;;;6.88;5.20;;;;;;;;;;4971283;28;98627;-93
2023/07/23 08:44:05;;;;;;;7.82;5.65;;;;;;;;;;4971577;28;100671;-95
2023/07/23 08:46:31;;;;;;;8.70;4.70;;;;;;;;;;4977750;28;101914;-94
2023/07/23 08:49:03;;;;;;;9.60;5.75;;;;;;;;;;4979669;28;98565;-92
2023/07/23 08:51:34;;;;;;;9.30;5.32;;;;;;;;;;4972208;28;102386;-93
2023/07/23 08:54:03;;;;;;;11.60;5.20;;;;;;;;;;4976859;28;100664;-93
2023/07/23 08:56:30;;;;;;;12.05;5.95;;;;;;;;;;4973344;28;98485;-94
2023/07/23 08:59:00;;;;;;;6.38;5.30;;;;;;;;;;4970666;28;99456;-93
2023/07/23 09:01:28;;;;;;;7.73;5.10;;;;;;;;;;4972133;28;99277;-93
2023/07/23 09:03:55;;;;;;;7.78;5.47;;;;;;;;;;4972845;28;100741;-92
2023/07/23 09:06:22;;;;;;;10.43;5.13;;;;;;;;;;4971336;28;102872;-93
2023/07/23 09:08:50;;;;;;;12.02;5.38;;;;;;;;;;4971913;28;98551;-93
2023/07/23 09:11:16;;;;;;;6.57;5.50;;;;;;;;;;4971065;28;100281;-93
2023/07/23 09:13:43;;;;;;;9.43;5.93;;;;;;;;;;4972675;28;100732;-92
2023/07/23 09:16:10;;;;;;;8.90;5.53;;;;;;;;;;4975812;28;99126;-94
2023/07/23 09:18:40;;;;;;;10.15;5.95;;;;;;;;;;4972744;28;100964;-93
2023/07/23 09:21:07;;;;;;;9.80;5.22;;;;;;;;;;4972208;28;98564;-92
2023/07/23 09:23:33;;;;;;;8.77;5.72;;;;;;;;;;4970469;28;100971;-92
2023/07/23 09:26:03;;;;;;;7.40;5.03;;;;;;;;;;4960902;28;101264;-91
2023/07/23 09:28:34;;;;;;;9.48;5.00;;;;;;;;;;4970304;28;98616;-93
2023/07/23 09:31:00;;;;;;;8.98;5.45;;;;;;;;;;4964276;28;99093;-93
2023/07/23 09:33:29;;;;;;;9.18;5.28;;;;;;;;;;4969905;28;100641;-93
2023/07/23 09:36:00;;;;;;;10.77;5.53;;;;;;;;;;4974070;28;98680;-92
2023/07/23 09:38:28;;;;;;;7.82;5.07;;;;;;;;;;4967148;28;99365;-92
2023/07/23 09:40:55;;;;;;;7.82;5.43;;;;;;;;;;4972453;28;98629;-92
2023/07/23 09:43:22;;;;;;;8.73;5.57;;;;;;;;;;4978915;28;100094;-92
2023/07/23 09:45:49;;;;;;;8.30;5.25;;;;;;;;;;4970844;28;100455;-92
2023/07/23 09:48:16;;;;;;;8.80;5.38;;;;;;;;;;4970463;28;98610;-93
2023/07/23 09:50:49;;;;;;;11.25;5.93;;;;;;;;;;4970210;28;102525;-92
2023/07/23 09:53:16;;;;;;;6.68;5.30;;;;;;;;;;4968786;28;102577;-92
2023/07/23 09:55:44;;;;;;;8.68;6.03;;;;;;;;;;4969779;28;98932;-93
2023/07/23 09:58:11;;;;;;;10.48;6.20;;;;;;;;;;4969673;28;99078;-93
2023/07/23 10:00:43;;;;;;;9.60;5.65;;;;;;;;;;4976102;28;101683;-93
2023/07/23 10:03:12;;;;;;;9.90;6.13;;;;;;;;;;4971015;28;102192;-93
2023/07/23 10:05:39;;;;;;;8.32;5.60;;;;;;;;;;4970941;28;102793;-93
2023/07/23 10:08:06;;;;;;;9.15;5.40;;;;;;;;;;4970404;28;97855;-93
2023/07/23 10:10:32;;;;;;;8.00;5.13;;;;;;;;;;4960293;28;98916;-93
2023/07/23 10:12:59;;;;;;;9.88;5.10;;;;;;;;;;4959624;28;99702;-93
2023/07/23 10:15:25;;;;;;;9.20;5.03;;;;;;;;;;4969601;28;99816;-93
2023/07/23 10:17:54;;;;;;;7.38;5.18;;;;;;;;;;4970606;28;103068;-93
2023/07/23 10:20:21;;;;;;;7.00;4.78;;;;;;;;;;4970696;28;102042;-94
2023/07/23 10:22:48;;;;;;;7.72;5.00;;;;;;;;;;4974584;28;98534;-94
2023/07/23 10:25:21;;;;;;;7.78;4.72;;;;;;;;;;4971019;28;100853;-95
2023/07/23 10:27:57;;;;;;;6.53;4.57;;;;;;;;;;4951650;28;99251;-95
2023/07/23 10:30:24;;;;;;;5.88;3.95;;;;;;;;;;4972851;28;102872;-95
2023/07/23 10:33:09;;;;;;;5.85;4.13;;;;;;;;;;4972076;28;102103;-94
2023/07/23 10:35:48;;;;;;;6.53;4.38;;;;;;;;;;4970801;28;98573;-94
2023/07/23 10:38:25;;;;;;;5.85;4.18;;;;;;;;;;4970097;28;101614;-94
2023/07/23 10:40:51;;;;;;;5.88;3.65;;;;;;;;;;4967846;28;100306;-93
2023/07/23 10:43:18;;;;;;;5.88;4.13;;;;;;;;;;4967696;28;98703;-94
2023/07/23 10:45:46;;;;;;;7.90;4.07;;;;;;;;;;4971775;28;103126;-94
2023/07/23 10:48:17;;;;;;;4.50;3.83;;;;;;;;;;4970749;28;98677;-94
2023/07/23 10:51:00;;;;;;;6.45;4.13;;;;;;;;;;4970948;28;102634;-94
2023/07/23 10:53:30;;;;;;;9.48;4.38;;;;;;;;;;4970194;28;100357;-93
2023/07/23 10:55:59;;;;;;;8.23;4.63;;;;;;;;;;4970092;28;98681;-95
2023/07/23 10:58:26;;;;;;;7.20;4.88;;;;;;;;;;4971694;28;101282;-93
2023/07/23 11:00:57;;;;;;;6.63;4.55;;;;;;;;;;4971430;28;103132;-94
2023/07/23 11:03:28;;;;;;;6.57;4.75;;;;;;;;;;4970872;28;98952;-94
2023/07/23 11:05:58;;;;;;;8.43;5.13;;;;;;;;;;4973507;28;101502;-94
2023/07/23 11:08:27;;;;;;;8.60;4.87;;;;;;;;;;4971342;28;98827;-94
2023/07/23 11:10:55;;;;;;;6.55;5.10;;;;;;;;;;4972595;28;101922;-93
2023/07/23 11:13:26;;;;;;;7.40;5.50;;;;;;;;;;4970963;28;102818;-94
2023/07/23 11:15:55;;;;;;;7.13;5.15;;;;;;;;;;4970098;28;99561;-92
2023/07/23 11:18:22;;;;;;;9.55;6.00;;;;;;;;;;4971846;28;102203;-93
2023/07/23 11:20:50;;;;;;;8.20;5.32;;;;;;;;;;4959124;28;103126;-94
2023/07/23 11:23:20;;;;;;;9.60;6.32;;;;;;;;;;4971244;28;97767;-94
2023/07/23 11:25:47;;;;;;;8.45;5.80;;;;;;;;;;4970138;28;100737;-92
2023/07/23 11:28:21;;;;;;;10.73;6.22;;;;;;;;;;4972663;28;101409;-92
2023/07/23 11:30:54;;;;;;;10.07;5.65;;;;;;;;;;4970312;28;101501;-91
2023/07/23 11:33:22;;;;;;;8.15;5.93;;;;;;;;;;4971258;28;99574;-91
2023/07/23 11:35:49;;;;;;;9.40;5.72;;;;;;;;;;4969981;28;98626;-94
2023/07/23 11:38:15;;;;;;;9.85;6.22;;;;;;;;;;4970864;28;100727;-93
2023/07/23 11:40:53;;;;;;;9.18;6.22;;;;;;;;;;4970200;28;100679;-93
2023/07/23 11:43:19;;;;;;;10.38;6.18;;;;;;;;;;4971347;28;98510;-92
2023/07/23 11:45:49;;;;;;;11.20;6.35;;;;;;;;;;4959808;28;99614;-94
2023/07/23 11:48:23;;;;;;;8.13;6.07;;;;;;;;;;4970619;28;101086;-93
2023/07/23 11:50:54;;;;;;;6.80;6.07;;;;;;;;;;4971295;28;100405;-93
2023/07/23 11:53:33;;;;;;;8.43;6.03;;;;;;;;;;4966409;28;99779;-93
2023/07/23 11:56:06;;;;;;;8.23;6.75;;;;;;;;;;4965370;28;99294;-92
2023/07/23 11:58:34;;;;;;;8.30;6.63;;;;;;;;;;4969138;28;100183;-93
2023/07/23 12:04:38;;;;;;;7.97;6.43;;;;;;;;;;4853236;29;99019;-94
2023/07/23 12:07:07;;;;;;;6.82;5.97;;;;;;;;;;4852157;28;102529;-93
2023/07/23 12:09:34;;;;;;;9.45;6.38;;;;;;;;;;4857945;28;100644;-94
2023/07/23 12:12:11;;;;;;;8.38;6.05;;;;;;;;;;4858548;28;101255;-91
2023/07/23 12:14:37;;;;;;;16.97;5.93;;;;;;;;;;4874640;28;99854;-92
2023/07/23 12:17:11;;;;;;;8.50;6.18;;;;;;;;;;4872131;28;98724;-92
2023/07/23 12:19:41;;;;;;;7.63;6.53;;;;;;;;;;4857553;28;101974;-92
2023/07/23 12:22:08;;;;;;;8.23;6.32;;;;;;;;;;4871450;28;102466;-93
2023/07/23 12:24:35;;;;;;;8.23;5.85;;;;;;;;;;4857539;28;98724;-92
2023/07/23 12:27:04;;;;;;;10.85;6.70;;;;;;;;;;4873687;28;103245;-92
2023/07/23 12:29:31;;;;;;;8.98;6.10;;;;;;;;;;4856914;28;99374;-92
2023/07/23 12:32:20;;;;;;;8.02;6.40;;;;;;;;;;4874103;28;98845;-93
2023/07/23 12:34:47;;;;;;;10.27;6.70;;;;;;;;;;4878455;28;100837;-91
2023/07/23 12:37:16;;;;;;;10.85;6.20;;;;;;;;;;4859874;28;98624;-90
2023/07/23 12:39:47;;;;;;;9.32;5.93;;;;;;;;;;4879611;28;103663;-94
2023/07/23 12:42:14;;;;;;;7.30;5.60;;;;;;;;;;4962371;28;102270;-92
2023/07/23 12:44:40;;;;;;;8.18;5.57;;;;;;;;;;4972434;28;98534;-92
2023/07/23 12:47:07;;;;;;;8.98;5.50;;;;;;;;;;4972661;28;101942;-94
2023/07/23 12:49:33;;;;;;;7.82;5.40;;;;;;;;;;4972888;28;101902;-91
2023/07/23 12:52:00;;;;;;;6.55;5.82;;;;;;;;;;4972262;28;98529;-93
2023/07/23 12:54:27;;;;;;;6.68;5.65;;;;;;;;;;4990933;28;101639;-93
2023/07/23 12:56:53;;;;;;;11.35;6.00;;;;;;;;;;4991977;28;101628;-91
2023/07/23 12:59:20;;;;;;;9.15;6.45;;;;;;;;;;4973257;28;102119;-91
2023/07/23 13:01:46;;;;;;;7.13;5.40;;;;;;;;;;4972578;28;99646;-93
2023/07/23 13:04:13;;;;;;;6.25;4.97;;;;;;;;;;4973380;28;97917;-92
2023/07/23 13:06:39;;;;;;;10.13;5.93;;;;;;;;;;4971083;28;99395;-92
2023/07/23 13:09:06;;;;;;;7.30;5.57;;;;;;;;;;4973879;28;99620;-92
2023/07/23 13:11:36;;;;;;;10.18;5.63;;;;;;;;;;4971209;28;99332;-93
2023/07/23 13:14:02;;;;;;;8.32;5.82;;;;;;;;;;4972613;28;100078;-92
2023/07/23 13:16:29;;;;;;;10.50;5.78;;;;;;;;;;4973580;28;98485;-92
2023/07/23 13:18:57;;;;;;;8.07;5.90;;;;;;;;;;4973740;28;98646;-94
2023/07/23 13:21:26;;;;;;;8.40;5.30;;;;;;;;;;4969713;28;102922;-93
2023/07/23 13:23:52;;;;;;;8.45;5.05;;;;;;;;;;4971291;28;98574;-92
2023/07/23 13:26:19;;;;;;;8.07;5.65;;;;;;;;;;4972558;28;100136;-93
2023/07/23 13:28:45;;;;;;;6.40;4.63;;;;;;;;;;4972783;28;98773;-93
2023/07/23 13:31:12;;;;;;;7.85;5.32;;;;;;;;;;4972028;28;99687;-93
2023/07/23 13:33:39;;;;;;;5.97;4.82;;;;;;;;;;4971384;28;100292;-93
2023/07/23 13:36:05;;;;;;;10.38;5.00;;;;;;;;;;4971415;28;104604;-93
2023/07/23 13:38:34;;;;;;;7.70;4.38;;;;;;;;;;4972841;28;98592;-92
2023/07/23 13:41:03;;;;;;;6.25;4.30;;;;;;;;;;4973957;28;99031;-91
2023/07/23 13:43:30;;;;;;;5.70;3.97;;;;;;;;;;4970981;28;98583;-94
2023/07/23 13:45:56;;;;;;;6.15;3.88;;;;;;;;;;4972140;28;101982;-94
2023/07/23 13:48:23;;;;;;;4.13;3.72;;;;;;;;;;4970798;28;99788;-94
2023/07/23 13:50:49;;;;;;;5.03;3.85;;;;;;;;;;4970787;28;99246;-93
2023/07/23 13:53:18;;;;;;;20.52;3.55;;;;;;;;;;4972159;28;101866;-93
2023/07/23 13:55:44;;;;;;;5.25;4.25;;;;;;;;;;4969833;28;103631;-93
2023/07/23 13:58:10;;;;;;;4.72;4.13;;;;;;;;;;4968004;28;98616;-92
2023/07/23 14:00:37;;;;;;;4.45;3.85;;;;;;;;;;4969271;28;99420;-93
2023/07/23 14:03:04;;;;;;;5.25;3.97;;;;;;;;;;4969026;28;99405;-94
2023/07/23 14:05:31;;;;;;;6.78;4.18;;;;;;;;;;4969311;28;102118;-92
2023/07/23 14:08:00;;;;;;;5.93;3.47;;;;;;;;;;4969555;28;101507;-93
2023/07/23 14:10:26;;;;;;;7.90;3.83;;;;;;;;;;4968734;28;98950;-93
2023/07/23 14:12:53;;;;;;;6.05;3.95;;;;;;;;;;4971135;28;99835;-93
2023/07/23 14:15:19;;;;;;;5.05;3.67;;;;;;;;;;4968588;28;100558;-94
2023/07/23 14:17:46;;;;;;;8.05;3.85;;;;;;;;;;4970880;28;97921;-94
2023/07/23 14:20:13;;;;;;;5.20;3.38;;;;;;;;;;4969899;28;98625;-93
2023/07/23 14:22:39;;;;;;;4.90;3.53;;;;;;;;;;4970730;28;99745;-93
2023/07/23 14:25:06;;;;;;;9.60;3.42;;;;;;;;;;4974379;28;99297;-94
2023/07/23 14:27:32;;;;;;;5.05;3.63;;;;;;;;;;4969540;28;99365;-93
2023/07/23 14:29:59;;;;;;;4.72;3.20;;;;;;;;;;4968099;28;98717;-93
2023/07/23 14:32:25;;;;;;;4.75;3.38;;;;;;;;;;4968732;28;99480;-94
2023/07/23 14:34:54;;;;;;;4.90;2.90;;;;;;;;;;4971261;28;98461;-93